Time;durP1;ratioP1;P1;durP2;ratioP2;P2;SDS_P1;SDS_P2;PMS_P1;PMS_P2;Temp;Humidity;BMP_temperature;BMP_pressure;BME280_temperature;BME280_humidity;BME280_pressure;Samples;Min_cycle;Max_cycle;Signal;HPM_P1;HPM_P2
2021/12/27 00:00:52;;;;;;;33.22;17.33;;;3.80;99.90;;;;;;5072028;28;20117;-70
2021/12/27 00:03:18;;;;;;;74.47;21.17;;;3.80;99.90;;;;;;5071842;28;20032;-71
2021/12/27 00:05:43;;;;;;;39.60;19.15;;;3.80;99.90;;;;;;5072404;28;20028;-70
2021/12/27 00:08:11;;;;;;;38.15;17.10;;;3.80;99.90;;;;;;5070682;28;20033;-70
2021/12/27 00:10:37;;;;;;;37.90;16.13;;;3.80;99.90;;;;;;5072259;28;20056;-70
2021/12/27 00:13:04;;;;;;;36.28;16.45;;;3.80;99.90;;;;;;5072059;28;20063;-69
2021/12/27 00:15:30;;;;;;;41.85;18.65;;;3.80;99.90;;;;;;5071026;28;20474;-71
2021/12/27 00:17:56;;;;;;;44.28;17.65;;;3.80;99.90;;;;;;5071944;28;20029;-71
2021/12/27 00:20:23;;;;;;;41.88;18.05;;;3.80;99.90;;;;;;5072696;28;20128;-70
2021/12/27 00:22:51;;;;;;;40.33;17.88;;;3.80;99.90;;;;;;5071983;28;20041;-69
2021/12/27 00:25:17;;;;;;;41.40;18.13;;;3.70;99.90;;;;;;5071613;28;20025;-70
2021/12/27 00:27:43;;;;;;;43.20;17.98;;;3.70;99.90;;;;;;5071158;28;20437;-69
2021/12/27 00:30:11;;;;;;;37.17;16.85;;;3.70;99.90;;;;;;5071928;28;20074;-70
2021/12/27 00:32:37;;;;;;;38.00;16.60;;;3.70;99.90;;;;;;5072172;28;20029;-70
2021/12/27 00:35:07;;;;;;;48.15;17.55;;;3.70;99.90;;;;;;5072205;28;20059;-69
2021/12/27 00:37:34;;;;;;;46.33;18.80;;;3.80;99.90;;;;;;5072287;28;20029;-69
2021/12/27 00:39:59;;;;;;;40.85;16.98;;;3.80;99.90;;;;;;5071850;28;20024;-70
2021/12/27 00:42:25;;;;;;;41.70;18.33;;;3.80;99.90;;;;;;5071931;28;20047;-70
2021/12/27 00:44:51;;;;;;;42.30;17.38;;;3.70;99.90;;;;;;5070106;28;20066;-69
2021/12/27 00:47:17;;;;;;;40.20;17.50;;;3.80;99.90;;;;;;5070189;28;20028;-70
2021/12/27 00:49:43;;;;;;;51.97;19.77;;;3.80;99.90;;;;;;5073440;28;20051;-70
2021/12/27 00:52:08;;;;;;;43.95;18.73;;;3.80;99.90;;;;;;5073775;28;20461;-70
2021/12/27 00:54:34;;;;;;;41.40;18.15;;;3.80;99.90;;;;;;5074472;28;20025;-70
2021/12/27 00:57:00;;;;;;;45.80;19.25;;;3.80;99.90;;;;;;5075379;28;20028;-69
2021/12/27 00:59:26;;;;;;;39.90;18.98;;;3.80;99.90;;;;;;5075504;28;20025;-71
2021/12/27 01:01:52;;;;;;;36.40;17.65;;;3.80;99.90;;;;;;5075407;28;20457;-70
2021/12/27 01:04:17;;;;;;;38.63;17.33;;;3.80;99.90;;;;;;5075576;28;20023;-71
2021/12/27 01:06:43;;;;;;;43.33;18.77;;;3.80;99.90;;;;;;5075447;28;20032;-71
2021/12/27 01:09:13;;;;;;;42.47;18.08;;;3.80;99.90;;;;;;5075459;28;20025;-70
2021/12/27 01:11:56;;;;;;;45.88;18.77;;;3.80;99.90;;;;;;5075261;28;20427;-70
2021/12/27 01:14:38;;;;;;;37.88;18.33;;;3.80;99.90;;;;;;5075288;28;20486;-69
2021/12/27 01:17:03;;;;;;;;;;;3.80;99.90;;;;;;5074487;28;20032;-70
2021/12/27 01:19:29;;;;;;;41.72;16.73;;;3.80;99.90;;;;;;5072716;28;19912;-71
2021/12/27 01:21:54;;;;;;;52.72;19.80;;;3.80;99.90;;;;;;5073620;28;20107;-71
2021/12/27 01:24:25;;;;;;;44.50;19.05;;;3.80;99.90;;;;;;5073838;28;20020;-71
2021/12/27 01:26:51;;;;;;;31.35;14.38;;;3.80;99.90;;;;;;5071576;28;20020;-70
2021/12/27 01:29:17;;;;;;;44.05;17.73;;;3.80;99.90;;;;;;5073875;28;20541;-70
2021/12/27 01:31:42;;;;;;;47.35;19.70;;;3.80;99.90;;;;;;5073751;28;20483;-71
2021/12/27 01:34:09;;;;;;;44.45;18.95;;;3.90;99.90;;;;;;5073689;28;20024;-70
2021/12/27 01:36:36;;;;;;;53.45;20.30;;;3.90;99.90;;;;;;5072836;28;20108;-70
2021/12/27 01:39:03;;;;;;;40.47;18.42;;;3.90;99.90;;;;;;5074441;28;20029;-71
2021/12/27 01:41:29;;;;;;;37.70;19.73;;;4.00;99.90;;;;;;5073474;28;20443;-71
2021/12/27 01:43:55;;;;;;;45.05;18.42;;;4.00;99.90;;;;;;5074910;28;20025;-70
2021/12/27 01:46:23;;;;;;;42.58;18.83;;;4.00;99.90;;;;;;5073497;28;20099;-71
2021/12/27 01:48:55;;;;;;;36.13;18.17;;;4.10;99.90;;;;;;5071718;28;20448;-69
2021/12/27 01:51:22;;;;;;;;;;;4.10;99.90;;;;;;5074983;28;20118;-70
2021/12/27 01:53:49;;;;;;;37.85;15.98;;;4.00;99.90;;;;;;5074606;28;19914;-70
2021/12/27 01:56:23;;;;;;;39.88;17.63;;;4.00;99.90;;;;;;5074874;28;20036;-71
2021/12/27 01:58:50;;;;;;;41.55;19.65;;;4.00;99.90;;;;;;5074519;28;20105;-71
2021/12/27 02:01:16;;;;;;;37.85;18.40;;;4.00;99.90;;;;;;5074229;28;20499;-71
2021/12/27 02:03:43;;;;;;;46.85;20.17;;;4.00;99.90;;;;;;5074330;28;20048;-71
2021/12/27 02:06:10;;;;;;;42.22;18.33;;;4.10;99.90;;;;;;5074371;28;20021;-71
2021/12/27 02:08:38;;;;;;;99.30;22.42;;;4.10;99.90;;;;;;5074276;28;20111;-70
2021/12/27 02:11:05;;;;;;;41.28;18.75;;;4.10;99.90;;;;;;5074302;28;20024;-71
2021/12/27 02:13:31;;;;;;;43.78;19.55;;;4.10;99.90;;;;;;5074403;28;20042;-70
2021/12/27 02:15:57;;;;;;;44.67;19.48;;;4.10;99.90;;;;;;5074212;28;20134;-69
2021/12/27 02:18:22;;;;;;;44.25;18.23;;;4.10;99.90;;;;;;5074325;28;20028;-69
2021/12/27 02:20:48;;;;;;;43.13;19.42;;;4.10;99.90;;;;;;5073789;28;20510;-70
2021/12/27 02:23:16;;;;;;;43.63;18.77;;;4.10;99.90;;;;;;5074028;28;20051;-70
2021/12/27 02:25:47;;;;;;;48.38;20.02;;;4.10;99.90;;;;;;5073990;28;20024;-70
2021/12/27 02:28:14;;;;;;;44.97;19.25;;;4.10;99.90;;;;;;5073770;28;20365;-70
2021/12/27 02:30:43;;;;;;;46.80;20.45;;;4.10;99.90;;;;;;5073871;28;20511;-70
2021/12/27 02:33:10;;;;;;;44.80;18.02;;;4.10;99.90;;;;;;5073491;28;20180;-70
2021/12/27 02:35:41;;;;;;;43.53;19.35;;;4.10;99.90;;;;;;5073767;28;20448;-70
2021/12/27 02:38:10;;;;;;;57.90;21.77;;;4.10;99.90;;;;;;5073783;28;20471;-71
2021/12/27 02:40:37;;;;;;;43.95;19.42;;;4.20;99.90;;;;;;5073833;28;20107;-70
2021/12/27 02:43:04;;;;;;;50.78;20.23;;;4.20;99.90;;;;;;5072390;28;20037;-70
2021/12/27 02:45:32;;;;;;;44.25;19.55;;;4.20;99.90;;;;;;5073494;28;20040;-69
2021/12/27 02:47:58;;;;;;;43.40;19.05;;;4.20;99.90;;;;;;5073178;28;20111;-71
2021/12/27 02:50:25;;;;;;;48.90;19.85;;;4.20;99.90;;;;;;5073321;28;20021;-70
2021/12/27 02:52:52;;;;;;;47.95;19.48;;;4.20;99.90;;;;;;5073546;28;20020;-70
2021/12/27 02:55:18;;;;;;;43.60;19.23;;;4.30;99.90;;;;;;5073201;28;20024;-70
2021/12/27 02:57:46;;;;;;;43.75;19.38;;;4.30;99.90;;;;;;5073361;28;20048;-69
2021/12/27 03:00:18;;;;;;;43.25;19.02;;;4.30;99.90;;;;;;5073251;28;20023;-70
2021/12/27 03:02:45;;;;;;;;;;;4.40;99.90;;;;;;5073369;28;20137;-70
2021/12/27 03:05:13;;;;;;;42.65;16.95;;;4.40;99.90;;;;;;5073336;28;19927;-70
2021/12/27 03:07:40;;;;;;;45.25;18.75;;;4.40;99.90;;;;;;5072025;28;20112;-70
2021/12/27 03:10:08;;;;;;;48.60;18.58;;;4.50;99.90;;;;;;5073241;28;20143;-69
2021/12/27 03:12:34;;;;;;;53.00;19.27;;;4.50;99.90;;;;;;5072496;28;20025;-70
2021/12/27 03:14:59;;;;;;;42.20;18.08;;;4.60;99.90;;;;;;5072737;28;20226;-70
2021/12/27 03:17:25;;;;;;;40.08;17.50;;;4.60;99.90;;;;;;5071788;28;20028;-70
2021/12/27 03:19:50;;;;;;;46.25;19.55;;;4.60;99.90;;;;;;5072834;28;20099;-70
2021/12/27 03:22:16;;;;;;;45.63;19.75;;;4.60;99.90;;;;;;5072922;28;20469;-69
2021/12/27 03:24:41;;;;;;;42.25;17.80;;;4.60;99.90;;;;;;5072776;28;20123;-69
2021/12/27 03:27:07;;;;;;;43.22;17.63;;;4.70;99.90;;;;;;5072974;28;20020;-69
2021/12/27 03:29:33;;;;;;;42.15;17.92;;;4.70;99.90;;;;;;5072436;28;20126;-69
2021/12/27 03:31:58;;;;;;;38.13;17.80;;;4.70;99.90;;;;;;5072908;28;20025;-70
2021/12/27 03:34:24;;;;;;;32.88;13.90;;;4.60;99.90;;;;;;5072903;28;20390;-69
2021/12/27 03:36:50;;;;;;;40.47;17.77;;;4.60;99.90;;;;;;5072497;28;20498;-70
2021/12/27 03:39:15;;;;;;;39.50;16.45;;;4.60;99.90;;;;;;5072650;28;20036;-70
2021/12/27 03:41:41;;;;;;;43.10;16.85;;;4.60;99.90;;;;;;5072304;28;20442;-69
2021/12/27 03:44:07;;;;;;;41.40;17.42;;;4.60;99.90;;;;;;5072509;28;20471;-69
2021/12/27 03:46:32;;;;;;;39.50;16.90;;;4.70;99.90;;;;;;5072916;28;20024;-71
2021/12/27 03:48:59;;;;;;;42.00;19.05;;;4.70;99.90;;;;;;5072558;28;20051;-71
2021/12/27 03:51:25;;;;;;;40.13;17.65;;;4.70;99.90;;;;;;5072622;28;20107;-70
2021/12/27 03:53:50;;;;;;;40.53;17.35;;;4.70;99.90;;;;;;5071348;28;20174;-70
2021/12/27 03:56:16;;;;;;;47.40;18.48;;;4.70;99.90;;;;;;5072494;28;20033;-70
2021/12/27 03:59:19;;;;;;;45.58;18.75;;;4.70;99.90;;;;;;5072375;28;20029;-70
2021/12/27 04:01:31;;;;;;;52.80;16.77;;;4.70;99.90;;;;;;5071953;28;20094;-70
2021/12/27 04:03:57;;;;;;;111.03;26.02;;;4.80;99.90;;;;;;5072471;28;20116;-70
2021/12/27 04:06:25;;;;;;;52.67;18.83;;;4.80;99.90;;;;;;5072325;28;20101;-69
2021/12/27 04:08:51;;;;;;;174.55;33.00;;;4.80;99.90;;;;;;5072276;28;20033;-70
2021/12/27 04:11:17;;;;;;;144.95;25.20;;;4.80;99.90;;;;;;5071993;28;20039;-70
2021/12/27 04:13:43;;;;;;;173.30;30.77;;;4.90;99.90;;;;;;5072424;28;20020;-70
2021/12/27 04:16:08;;;;;;;53.10;18.77;;;4.90;99.90;;;;;;5072197;28;20538;-70
2021/12/27 04:18:34;;;;;;;64.68;19.73;;;4.90;99.90;;;;;;5072154;28;20060;-71
2021/12/27 04:21:00;;;;;;;144.00;26.83;;;4.90;99.90;;;;;;5072210;28;20491;-70
2021/12/27 04:23:26;;;;;;;226.20;33.60;;;5.00;99.90;;;;;;5073404;28;20028;-70
2021/12/27 04:25:51;;;;;;;44.30;17.98;;;5.00;99.90;;;;;;5075856;28;20078;-71
2021/12/27 04:28:19;;;;;;;104.57;21.13;;;5.00;99.90;;;;;;5076262;28;20060;-70
2021/12/27 04:30:45;;;;;;;58.05;19.35;;;5.00;99.90;;;;;;5074912;28;20082;-70
2021/12/27 04:33:11;;;;;;;41.97;16.70;;;5.00;99.90;;;;;;5075937;28;20037;-70
2021/12/27 04:35:36;;;;;;;37.65;16.65;;;5.00;99.90;;;;;;5076040;28;20020;-69
2021/12/27 04:38:02;;;;;;;236.73;33.97;;;5.00;99.90;;;;;;5075905;28;20025;-69
2021/12/27 04:40:32;;;;;;;38.22;17.02;;;5.00;99.90;;;;;;5074468;28;20024;-71
2021/12/27 04:43:06;;;;;;;36.95;16.23;;;5.00;99.90;;;;;;5075741;28;20032;-68
2021/12/27 04:45:32;;;;;;;52.40;17.30;;;5.00;99.90;;;;;;5075690;28;20033;-69
2021/12/27 04:47:58;;;;;;;79.47;19.90;;;4.90;99.90;;;;;;5075699;28;20104;-70
2021/12/27 04:50:25;;;;;;;39.92;17.08;;;4.90;99.90;;;;;;5075910;28;20021;-69
2021/12/27 04:52:53;;;;;;;47.58;16.58;;;4.90;99.90;;;;;;5075338;28;20058;-68
2021/12/27 04:55:21;;;;;;;65.22;18.25;;;5.00;99.90;;;;;;5075807;28;20021;-70
2021/12/27 04:57:46;;;;;;;53.17;17.63;;;5.00;99.90;;;;;;5075602;28;20480;-69
2021/12/27 05:00:12;;;;;;;41.28;17.30;;;5.00;99.90;;;;;;5075549;28;20047;-71
2021/12/27 05:02:38;;;;;;;40.72;16.48;;;5.00;99.90;;;;;;5075182;28;20048;-70
2021/12/27 05:05:04;;;;;;;42.67;16.27;;;5.00;99.90;;;;;;5075375;28;20460;-71
2021/12/27 05:07:29;;;;;;;49.55;15.93;;;5.00;99.90;;;;;;5075157;28;20191;-71
2021/12/27 05:09:55;;;;;;;192.05;27.75;;;5.00;99.90;;;;;;5075188;28;20104;-70
2021/12/27 05:12:21;;;;;;;48.25;16.75;;;5.00;99.90;;;;;;5075237;28;20523;-68
2021/12/27 05:14:46;;;;;;;41.15;17.10;;;5.00;99.90;;;;;;5075434;28;20039;-72
2021/12/27 05:17:12;;;;;;;341.25;41.72;;;5.00;99.90;;;;;;5075202;28;20487;-70
2021/12/27 05:19:37;;;;;;;198.55;34.20;;;5.00;99.90;;;;;;5075134;28;20029;-69
2021/12/27 05:22:03;;;;;;;302.50;41.70;;;5.00;99.90;;;;;;5075186;28;20035;-73
2021/12/27 05:24:29;;;;;;;36.45;14.18;;;5.00;99.90;;;;;;5075247;28;20039;-69
2021/12/27 05:26:55;;;;;;;52.47;17.88;;;5.00;99.90;;;;;;5075526;28;20059;-71
2021/12/27 05:29:22;;;;;;;173.57;30.58;;;5.00;99.90;;;;;;5075084;28;20472;-71
2021/12/27 05:31:48;;;;;;;322.88;48.90;;;5.00;99.90;;;;;;5074975;28;20068;-70
2021/12/27 05:34:14;;;;;;;48.78;17.70;;;5.00;99.90;;;;;;5074571;28;20063;-69
2021/12/27 05:36:42;;;;;;;52.22;17.88;;;5.10;99.90;;;;;;5074600;28;20025;-69
2021/12/27 05:39:09;;;;;;;137.43;24.10;;;5.10;99.90;;;;;;5073750;28;20040;-70
2021/12/27 05:41:34;;;;;;;412.77;59.53;;;5.10;99.90;;;;;;5074987;28;20029;-71
2021/12/27 05:44:00;;;;;;;67.57;20.88;;;5.20;99.90;;;;;;5074745;28;20090;-69
2021/12/27 05:46:26;;;;;;;202.18;31.10;;;5.20;99.90;;;;;;5074874;28;20066;-70
2021/12/27 05:48:51;;;;;;;133.70;22.92;;;5.20;99.90;;;;;;5074622;28;20036;-71
2021/12/27 05:51:17;;;;;;;81.38;21.58;;;5.20;99.90;;;;;;5074723;28;20384;-70
2021/12/27 05:53:43;;;;;;;60.22;18.60;;;5.30;99.90;;;;;;5074692;28;20107;-70
2021/12/27 05:56:08;;;;;;;65.70;19.42;;;5.30;99.90;;;;;;5074767;28;20032;-68
2021/12/27 05:58:34;;;;;;;328.90;46.47;;;5.30;99.90;;;;;;5074767;28;20024;-72
2021/12/27 06:01:00;;;;;;;101.85;23.00;;;5.40;99.90;;;;;;5074656;28;20061;-71
2021/12/27 06:03:25;;;;;;;60.60;19.08;;;5.40;99.90;;;;;;5074669;28;20041;-71
2021/12/27 06:05:51;;;;;;;67.18;20.65;;;5.40;99.90;;;;;;5073198;28;20146;-70
2021/12/27 06:08:16;;;;;;;286.30;41.10;;;5.40;99.90;;;;;;5074649;28;20032;-70
2021/12/27 06:10:42;;;;;;;457.00;63.65;;;5.40;99.90;;;;;;5073188;28;20113;-70
2021/12/27 06:13:08;;;;;;;71.75;19.80;;;5.40;99.90;;;;;;5074701;28;20032;-69
2021/12/27 06:15:33;;;;;;;54.67;19.75;;;5.40;99.90;;;;;;5074787;28;20060;-70
2021/12/27 06:17:59;;;;;;;268.02;36.83;;;5.40;99.90;;;;;;5074410;28;20033;-70
2021/12/27 06:20:24;;;;;;;84.85;21.50;;;5.40;99.90;;;;;;5073930;28;20125;-70
2021/12/27 06:22:54;;;;;;;52.13;19.55;;;5.40;99.90;;;;;;5073943;28;20048;-71
2021/12/27 06:25:19;;;;;;;66.43;19.05;;;5.40;99.90;;;;;;5074372;28;20027;-71
2021/12/27 06:27:45;;;;;;;60.45;21.50;;;5.40;99.90;;;;;;5073981;28;20029;-70
2021/12/27 06:30:13;;;;;;;135.45;28.65;;;5.40;99.90;;;;;;5074051;28;20028;-69
2021/12/27 06:32:39;;;;;;;124.95;25.08;;;5.40;99.90;;;;;;5073734;28;20440;-69
2021/12/27 06:35:07;;;;;;;65.15;21.42;;;5.40;99.90;;;;;;5073635;28;20476;-70
2021/12/27 06:37:33;;;;;;;101.00;24.65;;;5.40;99.90;;;;;;5073635;28;20803;-70
2021/12/27 06:39:59;;;;;;;328.45;53.00;;;5.50;99.90;;;;;;5073900;28;20020;-70
2021/12/27 06:42:24;;;;;;;69.03;20.50;;;5.50;99.90;;;;;;5073590;28;20458;-69
2021/12/27 06:44:50;;;;;;;67.22;19.90;;;5.50;99.90;;;;;;5073828;28;20036;-70
2021/12/27 06:47:16;;;;;;;273.15;37.22;;;5.50;99.90;;;;;;5072623;28;20035;-70
2021/12/27 06:49:42;;;;;;;93.57;22.02;;;5.50;99.90;;;;;;5073631;28;20028;-69
2021/12/27 06:52:11;;;;;;;67.50;21.85;;;5.50;99.90;;;;;;5073660;28;20095;-70
2021/12/27 06:54:37;;;;;;;56.63;20.23;;;5.60;99.90;;;;;;5073580;28;20017;-71
2021/12/27 06:57:03;;;;;;;254.20;38.17;;;5.60;99.90;;;;;;5073844;28;20165;-69
2021/12/27 06:59:29;;;;;;;286.33;42.33;;;5.60;99.90;;;;;;5073452;28;20115;-69
2021/12/27 07:01:56;;;;;;;82.03;21.73;;;5.60;99.90;;;;;;5073220;28;20048;-71
2021/12/27 07:04:21;;;;;;;202.93;31.98;;;5.60;99.90;;;;;;5073214;28;20048;-69
2021/12/27 07:06:47;;;;;;;365.92;52.42;;;5.60;99.90;;;;;;5073147;28;20464;-69
2021/12/27 07:09:13;;;;;;;275.17;39.60;;;5.60;99.90;;;;;;5073423;28;20487;-69
2021/12/27 07:11:39;;;;;;;107.57;24.27;;;5.70;99.90;;;;;;5073160;28;20036;-69
2021/12/27 07:14:05;;;;;;;91.68;23.45;;;5.60;99.90;;;;;;5072808;28;20381;-69
2021/12/27 07:16:31;;;;;;;198.38;34.22;;;5.70;99.90;;;;;;5071519;28;20444;-69
2021/12/27 07:18:57;;;;;;;191.20;31.52;;;5.70;99.90;;;;;;5073178;28;20132;-70
2021/12/27 07:21:22;;;;;;;61.58;22.50;;;5.70;99.90;;;;;;5072854;28;20043;-69
2021/12/27 07:23:48;;;;;;;63.65;21.02;;;5.70;99.90;;;;;;5072341;28;20104;-69
2021/12/27 07:26:14;;;;;;;139.73;26.67;;;5.80;99.90;;;;;;5072530;28;20060;-70
2021/12/27 07:28:39;;;;;;;90.88;23.13;;;5.80;99.90;;;;;;5073031;28;20025;-70
2021/12/27 07:31:06;;;;;;;69.65;20.20;;;5.80;99.90;;;;;;5072326;28;20024;-71
2021/12/27 07:33:31;;;;;;;81.55;22.63;;;5.80;99.90;;;;;;5072856;28;20024;-70
2021/12/27 07:35:57;;;;;;;172.77;28.92;;;5.80;99.90;;;;;;5072410;28;20036;-71
2021/12/27 07:38:22;;;;;;;119.40;23.55;;;5.80;99.90;;;;;;5072437;28;20467;-69
2021/12/27 07:40:48;;;;;;;75.65;21.35;;;5.90;99.90;;;;;;5072290;28;20055;-70
2021/12/27 07:43:14;;;;;;;70.30;20.77;;;5.90;99.90;;;;;;5072379;28;20039;-70
2021/12/27 07:45:39;;;;;;;77.07;20.48;;;5.90;99.90;;;;;;5072343;28;20482;-69
2021/12/27 07:48:07;;;;;;;103.43;24.02;;;5.90;99.90;;;;;;5072592;28;20028;-70
2021/12/27 07:50:34;;;;;;;69.45;21.92;;;5.90;99.90;;;;;;5072625;28;20021;-70
2021/12/27 07:53:00;;;;;;;73.13;21.85;;;6.00;99.90;;;;;;5072981;28;20078;-70
2021/12/27 07:55:27;;;;;;;74.32;22.75;;;6.00;99.90;;;;;;5072771;28;20025;-68
2021/12/27 07:57:54;;;;;;;177.98;30.05;;;6.00;99.90;;;;;;5072350;28;20460;-69
2021/12/27 08:00:20;;;;;;;87.38;23.33;;;6.10;99.90;;;;;;5072228;28;20103;-69
2021/12/27 08:02:46;;;;;;;137.93;26.58;;;6.10;99.90;;;;;;5071976;28;20135;-68
2021/12/27 08:05:11;;;;;;;57.70;20.73;;;6.10;99.90;;;;;;5072374;28;20059;-69
2021/12/27 08:07:37;;;;;;;122.50;25.30;;;6.20;99.90;;;;;;5072391;28;20107;-69
2021/12/27 08:10:04;;;;;;;124.65;26.27;;;6.20;99.90;;;;;;5072560;28;20025;-70
2021/12/27 08:12:29;;;;;;;59.78;19.90;;;6.20;99.90;;;;;;5072225;28;20043;-69
2021/12/27 08:14:55;;;;;;;60.47;20.00;;;6.20;99.90;;;;;;5072321;28;20029;-70
2021/12/27 08:17:21;;;;;;;125.05;25.10;;;6.20;99.90;;;;;;5072555;28;20032;-69
2021/12/27 08:19:47;;;;;;;68.55;20.88;;;6.20;99.90;;;;;;5072324;28;20170;-70
2021/12/27 08:22:13;;;;;;;76.90;22.58;;;6.20;99.90;;;;;;5070394;28;20519;-69
2021/12/27 08:24:39;;;;;;;65.85;20.63;;;6.20;99.90;;;;;;5070874;28;20144;-70
2021/12/27 08:27:05;;;;;;;196.82;33.05;;;6.20;99.90;;;;;;5072067;28;20062;-70
2021/12/27 08:29:31;;;;;;;144.13;28.02;;;6.30;99.90;;;;;;5071291;28;20036;-70
2021/12/27 08:31:58;;;;;;;93.78;23.48;;;6.30;99.90;;;;;;5071944;28;20369;-69
2021/12/27 08:34:23;;;;;;;68.57;23.02;;;6.30;99.90;;;;;;5070515;28;20060;-70
2021/12/27 08:36:49;;;;;;;144.43;29.13;;;6.30;99.90;;;;;;5071359;28;20064;-70
2021/12/27 08:39:15;;;;;;;197.98;32.00;;;6.30;99.90;;;;;;5071612;28;20094;-72
2021/12/27 08:41:41;;;;;;;73.05;23.48;;;6.30;99.90;;;;;;5071830;28;20115;-71
2021/12/27 08:44:07;;;;;;;74.15;23.00;;;6.30;99.90;;;;;;5071710;28;20035;-70
2021/12/27 08:46:34;;;;;;;198.20;33.20;;;6.30;99.90;;;;;;5071808;28;20024;-71
2021/12/27 08:49:00;;;;;;;131.35;27.08;;;6.40;99.90;;;;;;5072135;28;20033;-70
2021/12/27 08:51:26;;;;;;;83.70;23.70;;;6.40;99.90;;;;;;5072048;28;20051;-70
2021/12/27 08:53:53;;;;;;;84.97;23.10;;;6.40;99.90;;;;;;5072290;28;20025;-70
2021/12/27 08:56:19;;;;;;;144.80;28.92;;;6.40;99.90;;;;;;5072016;28;20464;-70
2021/12/27 08:58:45;;;;;;;92.68;24.45;;;6.50;99.90;;;;;;5071970;28;20396;-70
2021/12/27 09:01:11;;;;;;;77.60;23.60;;;6.50;99.90;;;;;;5071726;28;20041;-70
2021/12/27 09:03:36;;;;;;;126.35;28.17;;;6.50;99.90;;;;;;5072141;28;20028;-70
2021/12/27 09:06:03;;;;;;;69.82;23.75;;;6.50;99.90;;;;;;5071558;28;20028;-69
2021/12/27 09:08:29;;;;;;;84.47;23.92;;;6.60;99.90;;;;;;5071683;28;20392;-70
2021/12/27 09:10:57;;;;;;;61.47;22.42;;;6.60;99.90;;;;;;5075052;28;20036;-71
2021/12/27 09:13:29;;;;;;;81.05;25.00;;;6.70;99.90;;;;;;5075086;28;20102;-70
2021/12/27 09:15:55;;;;;;;81.80;26.17;;;6.70;99.90;;;;;;5075262;28;20024;-71
2021/12/27 09:18:21;;;;;;;310.45;46.42;;;6.80;99.90;;;;;;5075164;28;20361;-70
2021/12/27 09:20:47;;;;;;;82.05;25.05;;;6.80;99.90;;;;;;5074089;28;20040;-69
2021/12/27 09:23:12;;;;;;;74.82;24.60;;;6.80;99.90;;;;;;5075065;28;20044;-70
2021/12/27 09:25:38;;;;;;;73.43;22.98;;;6.90;99.90;;;;;;5075399;28;20089;-70
2021/12/27 09:28:04;;;;;;;363.52;51.17;;;6.90;99.90;;;;;;5074683;28;20434;-70
2021/12/27 09:30:30;;;;;;;70.60;23.58;;;6.90;99.90;;;;;;5074806;28;20032;-71
2021/12/27 09:32:57;;;;;;;65.97;22.63;;;6.90;99.90;;;;;;5075285;28;20062;-70
2021/12/27 09:35:22;;;;;;;65.03;20.77;;;7.00;99.90;;;;;;5074874;28;20032;-70
2021/12/27 09:37:48;;;;;;;303.02;42.58;;;6.90;99.90;;;;;;5074766;28;20021;-71
2021/12/27 09:40:14;;;;;;;64.50;20.58;;;6.90;99.90;;;;;;5074797;28;20027;-70
2021/12/27 09:42:40;;;;;;;62.42;19.80;;;6.90;99.90;;;;;;5074632;28;20046;-70
2021/12/27 09:45:07;;;;;;;66.13;19.90;;;7.00;99.90;;;;;;5074905;28;20070;-70
2021/12/27 09:47:34;;;;;;;85.78;20.40;;;7.00;99.90;;;;;;5074927;28;20055;-70
2021/12/27 09:50:00;;;;;;;65.60;20.60;;;7.10;99.90;;;;;;5074941;28;20103;-70
2021/12/27 09:52:26;;;;;;;122.30;25.42;;;7.10;99.90;;;;;;5074917;28;20133;-70
2021/12/27 09:54:51;;;;;;;71.82;21.17;;;7.10;99.90;;;;;;5074625;28;20460;-70
2021/12/27 09:57:17;;;;;;;110.40;23.98;;;7.10;99.90;;;;;;5074567;28;20025;-70
2021/12/27 09:59:43;;;;;;;206.45;31.65;;;7.10;99.90;;;;;;5074119;28;20104;-69
2021/12/27 10:02:10;;;;;;;81.78;23.13;;;7.10;99.90;;;;;;5074021;28;20131;-71
2021/12/27 10:04:36;;;;;;;109.18;23.00;;;7.20;99.90;;;;;;5074454;28;20025;-71
2021/12/27 10:07:02;;;;;;;103.28;25.70;;;7.20;99.90;;;;;;5073980;28;20030;-71
2021/12/27 10:09:28;;;;;;;213.63;32.42;;;7.30;99.90;;;;;;5072437;28;20035;-70
2021/12/27 10:11:55;;;;;;;120.05;26.38;;;7.30;99.90;;;;;;5074297;28;20024;-70
2021/12/27 10:14:24;;;;;;;117.68;26.27;;;7.40;99.90;;;;;;5074179;28;20046;-70
2021/12/27 10:17:03;;;;;;;133.60;26.77;;;7.40;99.90;;;;;;5074383;28;20027;-70
2021/12/27 10:19:29;;;;;;;91.18;23.58;;;7.40;99.90;;;;;;5074279;28;20032;-69
2021/12/27 10:21:55;;;;;;;95.22;25.63;;;7.40;99.90;;;;;;5073789;28;20043;-70
2021/12/27 10:24:28;;;;;;;65.63;21.13;;;7.50;99.90;;;;;;5073919;28;20033;-70
2021/12/27 10:26:57;;;;;;;110.20;25.35;;;7.50;99.90;;;;;;5073996;28;20108;-69
2021/12/27 10:29:29;;;;;;;129.70;29.52;;;7.50;99.90;;;;;;5073939;28;20127;-70
2021/12/27 10:31:55;;;;;;;;;;;7.50;99.90;;;;;;5074431;28;20130;-70
2021/12/27 10:34:23;;;;;;;83.68;21.35;;;7.60;99.90;;;;;;5072381;28;19908;-71
2021/12/27 10:36:57;;;;;;;92.90;24.77;;;7.50;99.90;;;;;;5073430;28;20476;-71
2021/12/27 10:39:23;;;;;;;124.88;26.20;;;7.50;99.90;;;;;;5073549;28;20027;-70
2021/12/27 10:41:49;;;;;;;87.93;22.50;;;7.50;99.90;;;;;;5073714;28;20115;-69
2021/12/27 10:44:14;;;;;;;132.13;27.77;;;7.60;99.90;;;;;;5073638;28;20037;-70
2021/12/27 10:46:40;;;;;;;99.43;22.95;;;7.60;99.90;;;;;;5071651;28;20380;-71
2021/12/27 10:49:05;;;;;;;95.25;23.00;;;7.60;99.90;;;;;;5071404;28;20020;-71
2021/12/27 10:51:31;;;;;;;69.43;21.58;;;7.70;99.90;;;;;;5071943;28;20628;-70
2021/12/27 10:53:59;;;;;;;72.50;20.98;;;7.60;99.90;;;;;;5071656;28;20086;-72
2021/12/27 10:56:26;;;;;;;86.78;21.15;;;7.60;99.90;;;;;;5072506;28;20465;-71
2021/12/27 10:58:59;;;;;;;95.13;21.60;;;7.60;99.90;;;;;;5072377;28;20043;-71
2021/12/27 11:01:27;;;;;;;73.40;19.88;;;7.70;99.90;;;;;;5072692;28;20078;-71
2021/12/27 11:04:00;;;;;;;71.88;20.05;;;7.60;99.90;;;;;;5073179;28;20028;-73
2021/12/27 11:06:29;;;;;;;84.00;21.48;;;7.60;99.90;;;;;;5073181;28;20016;-72
2021/12/27 11:08:55;;;;;;;109.30;23.27;;;7.60;99.90;;;;;;5073353;28;20104;-71
2021/12/27 11:11:24;;;;;;;69.78;21.20;;;7.60;99.90;;;;;;5073296;28;20101;-71
2021/12/27 11:13:55;;;;;;;56.38;19.00;;;7.60;99.90;;;;;;5073241;28;20453;-70
2021/12/27 11:16:21;;;;;;;66.82;19.92;;;7.60;99.90;;;;;;5073127;28;20032;-69
2021/12/27 11:18:47;;;;;;;85.70;20.33;;;7.70;99.90;;;;;;5073202;28;20029;-70
2021/12/27 11:21:21;;;;;;;66.32;19.85;;;7.70;99.90;;;;;;5072909;28;20020;-70
2021/12/27 11:23:49;;;;;;;91.13;25.08;;;7.70;99.90;;;;;;5073062;28;20411;-69
2021/12/27 11:26:22;;;;;;;67.45;20.27;;;7.70;99.90;;;;;;5067734;28;20024;-70
2021/12/27 11:28:49;;;;;;;72.03;19.40;;;7.60;99.90;;;;;;5072911;28;20028;-69
2021/12/27 11:31:23;;;;;;;84.25;21.70;;;7.60;99.90;;;;;;5070799;28;20360;-70
2021/12/27 11:34:06;;;;;;;53.05;17.42;;;7.70;99.90;;;;;;5071720;28;20107;-70
2021/12/27 11:37:06;;;;;;;70.05;18.52;;;7.70;99.90;;;;;;5071414;28;20024;-71
2021/12/27 11:39:39;;;;;;;72.60;19.13;;;7.70;99.90;;;;;;5072633;28;20028;-69
2021/12/27 11:42:12;;;;;;;88.57;19.40;;;7.70;99.90;;;;;;5072082;28;20074;-70
2021/12/27 11:45:04;;;;;;;82.28;18.25;;;7.70;99.90;;;;;;5072503;28;20032;-70
2021/12/27 11:47:32;;;;;;;66.07;18.17;;;7.70;99.90;;;;;;5050070;28;20099;-69
2021/12/27 11:50:02;;;;;;;75.90;17.48;;;7.70;99.90;;;;;;5072527;28;20028;-70
2021/12/27 11:52:31;;;;;;;57.65;17.92;;;7.80;99.90;;;;;;5072524;28;20487;-69
2021/12/27 11:55:01;;;;;;;50.58;16.55;;;7.80;99.90;;;;;;5072383;28;20028;-69
2021/12/27 11:57:55;;;;;;;74.47;18.30;;;7.90;99.90;;;;;;5072605;28;20021;-69
2021/12/27 12:00:24;;;;;;;115.28;21.63;;;7.90;99.90;;;;;;5072301;28;20036;-69
2021/12/27 12:02:51;;;;;;;61.28;18.33;;;8.00;99.90;;;;;;5072046;28;20102;-68
2021/12/27 12:05:47;;;;;;;63.33;18.50;;;8.00;99.90;;;;;;5072307;28;20043;-70
2021/12/27 12:08:28;;;;;;;76.25;18.75;;;8.10;99.90;;;;;;5069945;28;20117;-69
2021/12/27 12:10:59;;;;;;;72.57;18.17;;;8.20;99.90;;;;;;5072193;28;20032;-70
2021/12/27 12:13:42;;;;;;;48.80;16.27;;;8.20;99.90;;;;;;5071404;28;20032;-69
2021/12/27 12:16:15;;;;;;;66.43;17.95;;;8.30;99.90;;;;;;5067696;28;20033;-69
2021/12/27 12:19:03;;;;;;;62.42;19.17;;;8.30;99.90;;;;;;5067577;28;20040;-69
2021/12/27 12:21:29;;;;;;;44.47;17.92;;;8.30;99.90;;;;;;5052046;28;20068;-69
2021/12/27 12:23:57;;;;;;;149.05;24.83;;;8.40;99.90;;;;;;5053833;28;20056;-69
2021/12/27 12:26:22;;;;;;;46.17;17.55;;;8.40;99.90;;;;;;5068852;28;20028;-69
2021/12/27 12:29:11;;;;;;;57.55;19.42;;;8.40;99.90;;;;;;5072052;28;20521;-72
2021/12/27 12:31:37;;;;;;;43.97;15.65;;;8.50;99.90;;;;;;5074053;28;20384;-71
2021/12/27 12:34:31;;;;;;;62.00;20.08;;;8.40;99.90;;;;;;5071981;28;20118;-70
2021/12/27 12:37:30;;;;;;;49.17;18.05;;;8.40;99.90;;;;;;5071917;28;20029;-70